sensor_id;sensor_type;location;lat;lon;timestamp;temperature;humidity
573;DHT22;271;51.114;13.780;2023-03-31T00:02:46;10.90;1.00
573;DHT22;271;51.114;13.780;2023-03-31T00:05:35;10.80;1.00
573;DHT22;271;51.114;13.780;2023-03-31T00:08:23;10.80;1.00
573;DHT22;271;51.114;13.780;2023-03-31T00:11:11;10.90;1.00
573;DHT22;271;51.114;13.780;2023-03-31T00:14:00;10.90;1.00
573;DHT22;271;51.114;13.780;2023-03-31T00:16:47;10.90;1.00
573;DHT22;271;51.114;13.780;2023-03-31T00:19:36;10.90;1.00
573;DHT22;271;51.114;13.780;2023-03-31T00:22:25;10.90;1.00
573;DHT22;271;51.114;13.780;2023-03-31T00:25:14;10.90;1.00
573;DHT22;271;51.114;13.780;2023-03-31T00:28:02;10.90;1.00
573;DHT22;271;51.114;13.780;2023-03-31T00:30:51;10.90;1.00
573;DHT22;271;51.114;13.780;2023-03-31T00:33:39;10.90;1.00
573;DHT22;271;51.114;13.780;2023-03-31T00:36:27;10.90;1.00
573;DHT22;271;51.114;13.780;2023-03-31T00:39:18;10.90;1.00
573;DHT22;271;51.114;13.780;2023-03-31T00:42:06;10.90;1.00
573;DHT22;271;51.114;13.780;2023-03-31T00:45:22;10.90;1.00
573;DHT22;271;51.114;13.780;2023-03-31T00:48:15;10.90;1.00
573;DHT22;271;51.114;13.780;2023-03-31T00:51:06;11.00;1.00
573;DHT22;271;51.114;13.780;2023-03-31T00:53:57;11.00;1.00
573;DHT22;271;51.114;13.780;2023-03-31T00:56:48;11.00;1.00
573;DHT22;271;51.114;13.780;2023-03-31T00:59:42;11.00;1.00
573;DHT22;271;51.114;13.780;2023-03-31T01:02:32;11.00;1.00
573;DHT22;271;51.114;13.780;2023-03-31T01:05:23;11.00;1.00
573;DHT22;271;51.114;13.780;2023-03-31T01:08:12;10.90;1.00
573;DHT22;271;51.114;13.780;2023-03-31T01:11:04;10.90;1.00
573;DHT22;271;51.114;13.780;2023-03-31T01:13:53;10.90;1.00
573;DHT22;271;51.114;13.780;2023-03-31T01:16:42;10.90;1.00
573;DHT22;271;51.114;13.780;2023-03-31T01:19:41;10.90;1.00
573;DHT22;271;51.114;13.780;2023-03-31T01:22:54;10.90;1.00
573;DHT22;271;51.114;13.780;2023-03-31T01:26:31;10.90;1.00
573;DHT22;271;51.114;13.780;2023-03-31T01:36:28;10.90;1.00
573;DHT22;271;51.114;13.780;2023-03-31T01:42:59;10.90;1.00
573;DHT22;271;51.114;13.780;2023-03-31T01:45:55;10.80;1.00
573;DHT22;271;51.114;13.780;2023-03-31T01:48:50;10.80;1.00
573;DHT22;271;51.114;13.780;2023-03-31T01:51:48;10.80;1.00
573;DHT22;271;51.114;13.780;2023-03-31T01:54:40;10.80;1.00
573;DHT22;271;51.114;13.780;2023-03-31T01:57:32;10.80;1.00
573;DHT22;271;51.114;13.780;2023-03-31T02:00:25;10.80;1.00
573;DHT22;271;51.114;13.780;2023-03-31T02:03:17;10.80;1.00
573;DHT22;271;51.114;13.780;2023-03-31T02:06:11;10.80;1.00
573;DHT22;271;51.114;13.780;2023-03-31T02:09:01;10.80;1.00
573;DHT22;271;51.114;13.780;2023-03-31T02:11:51;10.80;1.00
573;DHT22;271;51.114;13.780;2023-03-31T02:14:43;10.70;1.00
573;DHT22;271;51.114;13.780;2023-03-31T02:17:33;10.70;1.00
573;DHT22;271;51.114;13.780;2023-03-31T02:20:27;10.70;1.00
573;DHT22;271;51.114;13.780;2023-03-31T02:23:20;10.80;1.00
573;DHT22;271;51.114;13.780;2023-03-31T02:26:14;10.70;1.00
573;DHT22;271;51.114;13.780;2023-03-31T02:29:02;10.70;1.00
573;DHT22;271;51.114;13.780;2023-03-31T02:31:57;10.60;1.00
573;DHT22;271;51.114;13.780;2023-03-31T02:34:48;10.60;1.00
573;DHT22;271;51.114;13.780;2023-03-31T02:37:37;10.60;1.00
573;DHT22;271;51.114;13.780;2023-03-31T02:40:25;10.60;1.00
573;DHT22;271;51.114;13.780;2023-03-31T02:43:16;10.50;1.00
573;DHT22;271;51.114;13.780;2023-03-31T02:46:03;10.50;1.00
573;DHT22;271;51.114;13.780;2023-03-31T02:48:54;10.50;1.00
573;DHT22;271;51.114;13.780;2023-03-31T02:55:27;10.40;1.00
573;DHT22;271;51.114;13.780;2023-03-31T02:58:35;10.20;1.00
573;DHT22;271;51.114;13.780;2023-03-31T03:01:38;10.20;1.00
573;DHT22;271;51.114;13.780;2023-03-31T03:04:42;10.20;1.00
573;DHT22;271;51.114;13.780;2023-03-31T03:07:39;10.20;1.00
573;DHT22;271;51.114;13.780;2023-03-31T03:10:40;10.10;1.00
573;DHT22;271;51.114;13.780;2023-03-31T03:13:34;10.00;1.00
573;DHT22;271;51.114;13.780;2023-03-31T03:16:29;10.00;1.00
573;DHT22;271;51.114;13.780;2023-03-31T03:19:22;10.00;1.00
573;DHT22;271;51.114;13.780;2023-03-31T03:22:10;9.90;1.00
573;DHT22;271;51.114;13.780;2023-03-31T03:24:57;9.80;1.00
573;DHT22;271;51.114;13.780;2023-03-31T03:27:47;9.80;1.00
573;DHT22;271;51.114;13.780;2023-03-31T03:30:35;9.70;1.00
573;DHT22;271;51.114;13.780;2023-03-31T03:33:22;9.70;1.00
573;DHT22;271;51.114;13.780;2023-03-31T03:36:10;9.70;1.00
573;DHT22;271;51.114;13.780;2023-03-31T03:38:58;9.60;1.00
573;DHT22;271;51.114;13.780;2023-03-31T03:41:46;9.60;1.00
573;DHT22;271;51.114;13.780;2023-03-31T03:44:35;9.60;1.00
573;DHT22;271;51.114;13.780;2023-03-31T03:47:23;9.60;1.00
573;DHT22;271;51.114;13.780;2023-03-31T03:50:11;9.60;1.00
573;DHT22;271;51.114;13.780;2023-03-31T03:52:59;9.70;1.00
573;DHT22;271;51.114;13.780;2023-03-31T03:55:47;9.70;1.00
573;DHT22;271;51.114;13.780;2023-03-31T03:58:36;9.90;1.00
573;DHT22;271;51.114;13.780;2023-03-31T04:01:25;9.90;1.00
573;DHT22;271;51.114;13.780;2023-03-31T04:04:13;10.00;1.00
573;DHT22;271;51.114;13.780;2023-03-31T04:07:01;10.00;1.00
573;DHT22;271;51.114;13.780;2023-03-31T04:09:48;10.10;1.00
573;DHT22;271;51.114;13.780;2023-03-31T04:12:36;10.10;1.00
573;DHT22;271;51.114;13.780;2023-03-31T04:15:24;10.10;1.00
573;DHT22;271;51.114;13.780;2023-03-31T04:18:13;10.20;1.00
573;DHT22;271;51.114;13.780;2023-03-31T04:21:09;10.10;1.00
573;DHT22;271;51.114;13.780;2023-03-31T04:23:57;10.20;1.00
573;DHT22;271;51.114;13.780;2023-03-31T04:26:47;10.10;1.00
573;DHT22;271;51.114;13.780;2023-03-31T04:29:35;10.20;1.00
573;DHT22;271;51.114;13.780;2023-03-31T04:32:23;10.10;1.00
573;DHT22;271;51.114;13.780;2023-03-31T04:35:12;10.10;1.00
573;DHT22;271;51.114;13.780;2023-03-31T04:38:00;10.10;1.00
573;DHT22;271;51.114;13.780;2023-03-31T04:40:49;10.10;1.00
573;DHT22;271;51.114;13.780;2023-03-31T04:43:37;10.20;1.00
573;DHT22;271;51.114;13.780;2023-03-31T04:46:25;10.20;1.00
573;DHT22;271;51.114;13.780;2023-03-31T04:49:13;10.20;1.00
573;DHT22;271;51.114;13.780;2023-03-31T04:52:02;10.30;1.00
573;DHT22;271;51.114;13.780;2023-03-31T04:54:50;10.30;1.00
573;DHT22;271;51.114;13.780;2023-03-31T04:57:38;10.30;1.00
573;DHT22;271;51.114;13.780;2023-03-31T05:00:25;10.40;1.00
573;DHT22;271;51.114;13.780;2023-03-31T05:03:14;10.30;1.00
573;DHT22;271;51.114;13.780;2023-03-31T05:06:02;10.40;1.00
573;DHT22;271;51.114;13.780;2023-03-31T05:08:51;10.40;1.00
573;DHT22;271;51.114;13.780;2023-03-31T05:11:38;10.50;1.00
573;DHT22;271;51.114;13.780;2023-03-31T05:14:26;10.60;1.00
573;DHT22;271;51.114;13.780;2023-03-31T05:17:14;10.60;1.00
573;DHT22;271;51.114;13.780;2023-03-31T05:20:03;10.50;1.00
573;DHT22;271;51.114;13.780;2023-03-31T05:22:53;10.50;1.00
573;DHT22;271;51.114;13.780;2023-03-31T05:25:42;10.50;1.00
573;DHT22;271;51.114;13.780;2023-03-31T05:28:30;10.50;1.00
573;DHT22;271;51.114;13.780;2023-03-31T05:31:18;10.50;1.00
573;DHT22;271;51.114;13.780;2023-03-31T05:34:06;10.50;1.00
573;DHT22;271;51.114;13.780;2023-03-31T05:36:54;10.60;1.00
573;DHT22;271;51.114;13.780;2023-03-31T05:39:41;10.50;1.00
573;DHT22;271;51.114;13.780;2023-03-31T05:42:30;10.60;1.00
573;DHT22;271;51.114;13.780;2023-03-31T05:45:18;10.60;1.00
573;DHT22;271;51.114;13.780;2023-03-31T05:48:06;10.60;1.00
573;DHT22;271;51.114;13.780;2023-03-31T05:50:55;10.60;1.00
573;DHT22;271;51.114;13.780;2023-03-31T05:53:44;10.70;1.00
573;DHT22;271;51.114;13.780;2023-03-31T05:56:32;10.70;1.00
573;DHT22;271;51.114;13.780;2023-03-31T05:59:41;11.00;1.00
573;DHT22;271;51.114;13.780;2023-03-31T06:02:42;11.10;1.00
573;DHT22;271;51.114;13.780;2023-03-31T06:05:30;11.20;1.00
573;DHT22;271;51.114;13.780;2023-03-31T06:08:18;11.40;1.00
573;DHT22;271;51.114;13.780;2023-03-31T06:11:11;11.40;1.00
573;DHT22;271;51.114;13.780;2023-03-31T06:13:59;11.30;1.00
573;DHT22;271;51.114;13.780;2023-03-31T06:16:49;11.50;1.00
573;DHT22;271;51.114;13.780;2023-03-31T06:19:37;11.70;1.00
573;DHT22;271;51.114;13.780;2023-03-31T06:22:25;12.00;1.00
573;DHT22;271;51.114;13.780;2023-03-31T06:25:13;12.50;1.00
573;DHT22;271;51.114;13.780;2023-03-31T06:28:01;12.40;1.00
573;DHT22;271;51.114;13.780;2023-03-31T06:30:49;12.30;1.00
573;DHT22;271;51.114;13.780;2023-03-31T06:33:39;12.40;1.00
573;DHT22;271;51.114;13.780;2023-03-31T06:36:27;12.40;1.00
573;DHT22;271;51.114;13.780;2023-03-31T06:39:15;12.60;1.00
573;DHT22;271;51.114;13.780;2023-03-31T06:42:03;12.70;1.00
573;DHT22;271;51.114;13.780;2023-03-31T06:44:52;12.90;1.00
573;DHT22;271;51.114;13.780;2023-03-31T06:47:43;13.10;1.00
573;DHT22;271;51.114;13.780;2023-03-31T06:50:35;13.30;1.00
573;DHT22;271;51.114;13.780;2023-03-31T06:53:23;13.10;1.00
573;DHT22;271;51.114;13.780;2023-03-31T06:56:11;13.00;1.00
573;DHT22;271;51.114;13.780;2023-03-31T06:58:59;13.00;1.00
573;DHT22;271;51.114;13.780;2023-03-31T07:01:46;13.40;1.00
573;DHT22;271;51.114;13.780;2023-03-31T07:04:36;13.70;1.00
573;DHT22;271;51.114;13.780;2023-03-31T07:07:25;14.20;1.00
573;DHT22;271;51.114;13.780;2023-03-31T07:10:13;14.20;1.00
573;DHT22;271;51.114;13.780;2023-03-31T07:13:01;14.40;1.00
573;DHT22;271;51.114;13.780;2023-03-31T07:15:49;14.10;1.00
573;DHT22;271;51.114;13.780;2023-03-31T07:18:37;13.80;1.00
573;DHT22;271;51.114;13.780;2023-03-31T07:21:27;13.70;1.00
573;DHT22;271;51.114;13.780;2023-03-31T07:24:16;13.50;1.00
573;DHT22;271;51.114;13.780;2023-03-31T07:27:04;13.20;1.00
573;DHT22;271;51.114;13.780;2023-03-31T07:29:51;13.00;1.00
573;DHT22;271;51.114;13.780;2023-03-31T07:32:40;12.90;1.00
573;DHT22;271;51.114;13.780;2023-03-31T07:35:28;13.00;1.00
573;DHT22;271;51.114;13.780;2023-03-31T07:38:15;13.00;1.00
573;DHT22;271;51.114;13.780;2023-03-31T07:41:08;13.00;1.00
573;DHT22;271;51.114;13.780;2023-03-31T07:43:56;13.10;1.00
573;DHT22;271;51.114;13.780;2023-03-31T07:46:44;13.50;1.00
573;DHT22;271;51.114;13.780;2023-03-31T07:49:32;14.10;1.00
573;DHT22;271;51.114;13.780;2023-03-31T07:52:20;14.40;1.00
573;DHT22;271;51.114;13.780;2023-03-31T07:55:09;14.90;1.00
573;DHT22;271;51.114;13.780;2023-03-31T07:57:59;15.10;1.00
573;DHT22;271;51.114;13.780;2023-03-31T08:00:46;15.20;1.00
573;DHT22;271;51.114;13.780;2023-03-31T08:03:34;15.20;1.00
573;DHT22;271;51.114;13.780;2023-03-31T08:06:24;15.20;1.00
573;DHT22;271;51.114;13.780;2023-03-31T08:09:11;15.20;1.00
573;DHT22;271;51.114;13.780;2023-03-31T08:11:59;14.80;1.00
573;DHT22;271;51.114;13.780;2023-03-31T08:14:48;14.80;1.00
573;DHT22;271;51.114;13.780;2023-03-31T08:17:36;14.80;1.00
573;DHT22;271;51.114;13.780;2023-03-31T08:20:24;14.70;1.00
573;DHT22;271;51.114;13.780;2023-03-31T08:23:12;14.50;1.00
573;DHT22;271;51.114;13.780;2023-03-31T08:26:10;14.50;1.00
573;DHT22;271;51.114;13.780;2023-03-31T08:28:58;14.30;1.00
573;DHT22;271;51.114;13.780;2023-03-31T08:31:47;14.20;1.00
573;DHT22;271;51.114;13.780;2023-03-31T08:34:35;13.90;1.00
573;DHT22;271;51.114;13.780;2023-03-31T08:37:23;13.80;1.00
573;DHT22;271;51.114;13.780;2023-03-31T08:40:14;13.70;1.00
573;DHT22;271;51.114;13.780;2023-03-31T08:43:07;13.60;1.00
573;DHT22;271;51.114;13.780;2023-03-31T08:45:57;13.50;1.00
573;DHT22;271;51.114;13.780;2023-03-31T08:48:49;13.60;1.00
573;DHT22;271;51.114;13.780;2023-03-31T08:51:41;13.60;1.00
573;DHT22;271;51.114;13.780;2023-03-31T08:54:32;13.60;1.00
573;DHT22;271;51.114;13.780;2023-03-31T08:57:24;13.70;1.00
573;DHT22;271;51.114;13.780;2023-03-31T09:00:15;13.60;1.00
573;DHT22;271;51.114;13.780;2023-03-31T09:03:05;13.60;1.00
573;DHT22;271;51.114;13.780;2023-03-31T09:06:02;13.60;1.00
573;DHT22;271;51.114;13.780;2023-03-31T09:08:56;13.50;1.00
573;DHT22;271;51.114;13.780;2023-03-31T09:11:50;13.40;1.00
573;DHT22;271;51.114;13.780;2023-03-31T09:14:43;13.40;1.00
573;DHT22;271;51.114;13.780;2023-03-31T09:17:39;13.30;1.00
573;DHT22;271;51.114;13.780;2023-03-31T09:20:30;13.20;1.00
573;DHT22;271;51.114;13.780;2023-03-31T09:23:26;13.20;1.00
573;DHT22;271;51.114;13.780;2023-03-31T09:26:23;13.10;1.00
573;DHT22;271;51.114;13.780;2023-03-31T09:29:15;13.00;1.00
573;DHT22;271;51.114;13.780;2023-03-31T09:32:13;12.90;1.00
573;DHT22;271;51.114;13.780;2023-03-31T09:35:13;12.90;1.00
573;DHT22;271;51.114;13.780;2023-03-31T09:38:02;12.90;1.00
573;DHT22;271;51.114;13.780;2023-03-31T09:40:51;12.80;1.00
573;DHT22;271;51.114;13.780;2023-03-31T09:43:40;12.80;1.00
573;DHT22;271;51.114;13.780;2023-03-31T09:46:30;12.80;1.00
573;DHT22;271;51.114;13.780;2023-03-31T09:49:20;12.80;1.00
573;DHT22;271;51.114;13.780;2023-03-31T09:52:25;12.80;1.00
573;DHT22;271;51.114;13.780;2023-03-31T09:55:20;12.70;1.00
573;DHT22;271;51.114;13.780;2023-03-31T09:58:14;12.70;1.00
573;DHT22;271;51.114;13.780;2023-03-31T10:01:03;12.70;1.00
573;DHT22;271;51.114;13.780;2023-03-31T10:03:53;12.70;1.00
573;DHT22;271;51.114;13.780;2023-03-31T10:06:41;12.70;1.00
573;DHT22;271;51.114;13.780;2023-03-31T10:09:31;12.60;1.00
573;DHT22;271;51.114;13.780;2023-03-31T10:12:21;12.60;1.00
573;DHT22;271;51.114;13.780;2023-03-31T10:15:18;12.60;1.00
573;DHT22;271;51.114;13.780;2023-03-31T10:18:12;12.60;1.00
573;DHT22;271;51.114;13.780;2023-03-31T10:21:03;12.50;1.00
573;DHT22;271;51.114;13.780;2023-03-31T10:23:51;12.40;1.00
573;DHT22;271;51.114;13.780;2023-03-31T10:26:39;12.40;1.00
573;DHT22;271;51.114;13.780;2023-03-31T10:29:33;12.40;1.00
573;DHT22;271;51.114;13.780;2023-03-31T10:32:29;12.40;1.00
573;DHT22;271;51.114;13.780;2023-03-31T10:35:25;12.40;1.00
573;DHT22;271;51.114;13.780;2023-03-31T10:38:16;12.40;1.00
573;DHT22;271;51.114;13.780;2023-03-31T10:41:05;12.40;1.00
573;DHT22;271;51.114;13.780;2023-03-31T10:43:54;12.50;1.00
573;DHT22;271;51.114;13.780;2023-03-31T10:46:46;12.50;1.00
573;DHT22;271;51.114;13.780;2023-03-31T10:49:39;12.50;1.00
573;DHT22;271;51.114;13.780;2023-03-31T10:52:42;12.50;1.00
573;DHT22;271;51.114;13.780;2023-03-31T10:55:35;12.50;1.00
573;DHT22;271;51.114;13.780;2023-03-31T10:58:36;12.40;1.00
573;DHT22;271;51.114;13.780;2023-03-31T11:01:32;12.50;1.00
573;DHT22;271;51.114;13.780;2023-03-31T11:04:35;12.50;1.00
573;DHT22;271;51.114;13.780;2023-03-31T11:07:39;12.50;1.00
573;DHT22;271;51.114;13.780;2023-03-31T11:10:45;12.60;1.00
573;DHT22;271;51.114;13.780;2023-03-31T11:13:40;12.60;1.00
573;DHT22;271;51.114;13.780;2023-03-31T11:16:38;12.60;1.00
573;DHT22;271;51.114;13.780;2023-03-31T11:19:37;12.60;1.00
573;DHT22;271;51.114;13.780;2023-03-31T11:22:33;12.60;1.00
573;DHT22;271;51.114;13.780;2023-03-31T11:25:28;12.60;1.00
573;DHT22;271;51.114;13.780;2023-03-31T11:28:48;12.60;1.00
573;DHT22;271;51.114;13.780;2023-03-31T11:31:45;12.50;1.00
573;DHT22;271;51.114;13.780;2023-03-31T11:34:57;12.40;1.00
573;DHT22;271;51.114;13.780;2023-03-31T11:37:56;12.40;1.00
573;DHT22;271;51.114;13.780;2023-03-31T11:40:55;12.40;1.00
573;DHT22;271;51.114;13.780;2023-03-31T11:43:57;12.40;1.00
573;DHT22;271;51.114;13.780;2023-03-31T11:46:52;12.30;1.00
573;DHT22;271;51.114;13.780;2023-03-31T11:49:45;12.20;1.00
573;DHT22;271;51.114;13.780;2023-03-31T11:52:38;12.00;1.00
573;DHT22;271;51.114;13.780;2023-03-31T11:55:28;11.70;1.00
573;DHT22;271;51.114;13.780;2023-03-31T11:58:21;11.70;1.00
573;DHT22;271;51.114;13.780;2023-03-31T12:01:16;11.70;1.00
573;DHT22;271;51.114;13.780;2023-03-31T12:04:25;11.60;1.00
573;DHT22;271;51.114;13.780;2023-03-31T12:07:22;11.50;1.00
573;DHT22;271;51.114;13.780;2023-03-31T12:10:18;11.50;1.00
573;DHT22;271;51.114;13.780;2023-03-31T12:13:30;11.50;1.00
573;DHT22;271;51.114;13.780;2023-03-31T12:16:22;11.50;1.00
573;DHT22;271;51.114;13.780;2023-03-31T12:19:16;11.40;1.00
573;DHT22;271;51.114;13.780;2023-03-31T12:22:24;11.20;1.00
573;DHT22;271;51.114;13.780;2023-03-31T12:25:14;11.20;1.00
573;DHT22;271;51.114;13.780;2023-03-31T12:28:03;11.10;1.00
573;DHT22;271;51.114;13.780;2023-03-31T12:30:53;11.00;1.00
573;DHT22;271;51.114;13.780;2023-03-31T12:33:43;10.80;1.00
573;DHT22;271;51.114;13.780;2023-03-31T12:36:44;10.80;1.00
573;DHT22;271;51.114;13.780;2023-03-31T12:39:54;10.90;1.00
573;DHT22;271;51.114;13.780;2023-03-31T12:43:04;10.90;1.00
573;DHT22;271;51.114;13.780;2023-03-31T12:46:02;11.00;1.00
573;DHT22;271;51.114;13.780;2023-03-31T12:49:03;11.00;1.00
573;DHT22;271;51.114;13.780;2023-03-31T12:52:03;10.90;1.00
573;DHT22;271;51.114;13.780;2023-03-31T12:55:22;10.90;1.00
573;DHT22;271;51.114;13.780;2023-03-31T12:58:41;10.90;1.00
573;DHT22;271;51.114;13.780;2023-03-31T13:01:30;10.90;1.00
573;DHT22;271;51.114;13.780;2023-03-31T13:04:34;10.80;1.00
573;DHT22;271;51.114;13.780;2023-03-31T13:07:38;10.80;1.00
573;DHT22;271;51.114;13.780;2023-03-31T13:10:28;10.90;1.00
573;DHT22;271;51.114;13.780;2023-03-31T13:13:16;10.90;1.00
573;DHT22;271;51.114;13.780;2023-03-31T13:16:04;10.80;1.00
573;DHT22;271;51.114;13.780;2023-03-31T13:18:54;10.80;1.00
573;DHT22;271;51.114;13.780;2023-03-31T13:22:19;10.70;1.00
573;DHT22;271;51.114;13.780;2023-03-31T13:28:46;10.70;1.00
573;DHT22;271;51.114;13.780;2023-03-31T13:32:21;10.60;1.00
573;DHT22;271;51.114;13.780;2023-03-31T13:35:16;10.60;4.00
573;DHT22;271;51.114;13.780;2023-03-31T13:38:29;10.60;3.00
573;DHT22;271;51.114;13.780;2023-03-31T13:41:38;10.60;1.00
573;DHT22;271;51.114;13.780;2023-03-31T13:51:22;10.70;1.00
573;DHT22;271;51.114;13.780;2023-03-31T13:58:13;10.60;1.00
573;DHT22;271;51.114;13.780;2023-03-31T14:08:23;10.70;1.00
573;DHT22;271;51.114;13.780;2023-03-31T14:11:20;10.60;1.00
573;DHT22;271;51.114;13.780;2023-03-31T14:14:23;10.60;1.00
573;DHT22;271;51.114;13.780;2023-03-31T14:17:15;10.60;1.00
573;DHT22;271;51.114;13.780;2023-03-31T14:20:21;10.80;1.00
573;DHT22;271;51.114;13.780;2023-03-31T14:23:43;10.70;1.00
573;DHT22;271;51.114;13.780;2023-03-31T14:26:54;10.70;1.00
573;DHT22;271;51.114;13.780;2023-03-31T14:29:49;10.90;1.00
573;DHT22;271;51.114;13.780;2023-03-31T14:35:54;11.10;1.00
573;DHT22;271;51.114;13.780;2023-03-31T14:38:46;11.30;1.00
573;DHT22;271;51.114;13.780;2023-03-31T14:41:34;11.50;1.00
573;DHT22;271;51.114;13.780;2023-03-31T14:44:28;11.50;1.00
573;DHT22;271;51.114;13.780;2023-03-31T14:47:20;11.50;1.00
573;DHT22;271;51.114;13.780;2023-03-31T14:50:13;11.60;1.00
573;DHT22;271;51.114;13.780;2023-03-31T14:53:18;11.70;1.00
573;DHT22;271;51.114;13.780;2023-03-31T14:56:13;11.70;1.00
573;DHT22;271;51.114;13.780;2023-03-31T14:59:03;11.80;1.00
573;DHT22;271;51.114;13.780;2023-03-31T15:01:51;11.80;1.00
573;DHT22;271;51.114;13.780;2023-03-31T15:04:40;11.80;1.00
573;DHT22;271;51.114;13.780;2023-03-31T15:07:31;11.80;1.00
573;DHT22;271;51.114;13.780;2023-03-31T15:10:20;11.90;1.00
573;DHT22;271;51.114;13.780;2023-03-31T15:13:14;11.80;1.00
573;DHT22;271;51.114;13.780;2023-03-31T15:16:18;11.80;1.00
573;DHT22;271;51.114;13.780;2023-03-31T15:19:12;11.70;1.00
573;DHT22;271;51.114;13.780;2023-03-31T15:22:07;11.80;1.00
573;DHT22;271;51.114;13.780;2023-03-31T15:24:57;11.90;1.00
573;DHT22;271;51.114;13.780;2023-03-31T15:27:46;12.00;1.00
573;DHT22;271;51.114;13.780;2023-03-31T15:30:37;12.10;1.00
573;DHT22;271;51.114;13.780;2023-03-31T15:33:30;12.20;1.00
573;DHT22;271;51.114;13.780;2023-03-31T15:36:19;12.30;1.00
573;DHT22;271;51.114;13.780;2023-03-31T15:39:09;12.30;1.00
573;DHT22;271;51.114;13.780;2023-03-31T15:42:00;12.30;1.00
573;DHT22;271;51.114;13.780;2023-03-31T15:44:53;12.30;1.00
573;DHT22;271;51.114;13.780;2023-03-31T15:47:49;12.20;1.00
573;DHT22;271;51.114;13.780;2023-03-31T15:50:38;12.20;1.00
573;DHT22;271;51.114;13.780;2023-03-31T15:53:29;12.10;1.00
573;DHT22;271;51.114;13.780;2023-03-31T15:56:28;12.00;1.00
573;DHT22;271;51.114;13.780;2023-03-31T15:59:21;12.10;1.00
573;DHT22;271;51.114;13.780;2023-03-31T16:02:12;11.90;1.00
573;DHT22;271;51.114;13.780;2023-03-31T16:05:03;11.90;1.00
573;DHT22;271;51.114;13.780;2023-03-31T16:07:51;11.90;1.00
573;DHT22;271;51.114;13.780;2023-03-31T16:10:39;11.80;1.00
573;DHT22;271;51.114;13.780;2023-03-31T16:13:28;11.80;1.00
573;DHT22;271;51.114;13.780;2023-03-31T16:16:20;11.60;1.00
573;DHT22;271;51.114;13.780;2023-03-31T16:19:12;11.40;1.00
573;DHT22;271;51.114;13.780;2023-03-31T16:22:18;11.40;1.00
573;DHT22;271;51.114;13.780;2023-03-31T16:25:09;11.40;1.00
573;DHT22;271;51.114;13.780;2023-03-31T16:27:59;11.40;1.00
573;DHT22;271;51.114;13.780;2023-03-31T16:30:47;11.40;1.00
573;DHT22;271;51.114;13.780;2023-03-31T16:33:52;11.40;1.00
573;DHT22;271;51.114;13.780;2023-03-31T16:36:54;11.40;1.00
573;DHT22;271;51.114;13.780;2023-03-31T16:39:43;11.30;1.00
573;DHT22;271;51.114;13.780;2023-03-31T16:42:31;11.20;1.00
573;DHT22;271;51.114;13.780;2023-03-31T16:45:19;11.10;1.00
573;DHT22;271;51.114;13.780;2023-03-31T16:48:10;11.10;1.00
573;DHT22;271;51.114;13.780;2023-03-31T16:50:58;11.10;1.00
573;DHT22;271;51.114;13.780;2023-03-31T16:53:49;11.00;1.00
573;DHT22;271;51.114;13.780;2023-03-31T16:56:39;10.90;1.00
573;DHT22;271;51.114;13.780;2023-03-31T16:59:26;10.80;1.00
573;DHT22;271;51.114;13.780;2023-03-31T17:02:14;10.80;1.00
573;DHT22;271;51.114;13.780;2023-03-31T17:05:05;10.70;1.00
573;DHT22;271;51.114;13.780;2023-03-31T17:07:53;10.70;1.00
573;DHT22;271;51.114;13.780;2023-03-31T17:10:41;10.60;1.00
573;DHT22;271;51.114;13.780;2023-03-31T17:13:38;10.50;1.00
573;DHT22;271;51.114;13.780;2023-03-31T17:16:27;10.50;1.00
573;DHT22;271;51.114;13.780;2023-03-31T17:19:14;10.40;1.00
573;DHT22;271;51.114;13.780;2023-03-31T17:22:03;10.40;1.00
573;DHT22;271;51.114;13.780;2023-03-31T17:24:51;10.20;1.00
573;DHT22;271;51.114;13.780;2023-03-31T17:27:43;10.20;1.00
573;DHT22;271;51.114;13.780;2023-03-31T17:30:35;10.20;1.00
573;DHT22;271;51.114;13.780;2023-03-31T17:33:24;10.10;1.00
573;DHT22;271;51.114;13.780;2023-03-31T17:36:13;10.00;1.00
573;DHT22;271;51.114;13.780;2023-03-31T17:39:02;9.90;1.00
573;DHT22;271;51.114;13.780;2023-03-31T17:41:50;9.80;1.00
573;DHT22;271;51.114;13.780;2023-03-31T17:44:38;9.90;1.00
573;DHT22;271;51.114;13.780;2023-03-31T17:47:29;9.80;1.00
573;DHT22;271;51.114;13.780;2023-03-31T17:50:19;9.70;1.00
573;DHT22;271;51.114;13.780;2023-03-31T17:53:06;9.60;1.00
573;DHT22;271;51.114;13.780;2023-03-31T17:55:54;9.60;1.00
573;DHT22;271;51.114;13.780;2023-03-31T17:58:43;9.60;1.00
573;DHT22;271;51.114;13.780;2023-03-31T18:01:30;9.50;1.00
573;DHT22;271;51.114;13.780;2023-03-31T18:04:20;9.40;1.00
573;DHT22;271;51.114;13.780;2023-03-31T18:07:08;9.30;1.00
573;DHT22;271;51.114;13.780;2023-03-31T18:09:56;9.30;1.00
573;DHT22;271;51.114;13.780;2023-03-31T18:12:44;9.20;1.00
573;DHT22;271;51.114;13.780;2023-03-31T18:15:31;9.30;1.00
573;DHT22;271;51.114;13.780;2023-03-31T18:18:19;9.20;1.00
573;DHT22;271;51.114;13.780;2023-03-31T18:21:11;9.20;1.00
573;DHT22;271;51.114;13.780;2023-03-31T18:23:59;9.20;1.00
573;DHT22;271;51.114;13.780;2023-03-31T18:26:48;9.20;1.00
573;DHT22;271;51.114;13.780;2023-03-31T18:29:35;9.20;1.00
573;DHT22;271;51.114;13.780;2023-03-31T18:32:24;9.20;3.90
573;DHT22;271;51.114;13.780;2023-03-31T18:35:12;9.20;1.00
573;DHT22;271;51.114;13.780;2023-03-31T18:38:01;9.20;3.10
573;DHT22;271;51.114;13.780;2023-03-31T18:40:50;9.30;5.80
573;DHT22;271;51.114;13.780;2023-03-31T18:43:38;9.30;5.50
573;DHT22;271;51.114;13.780;2023-03-31T18:46:25;9.30;6.70
573;DHT22;271;51.114;13.780;2023-03-31T18:49:13;9.30;4.00
573;DHT22;271;51.114;13.780;2023-03-31T18:52:01;9.30;1.00
573;DHT22;271;51.114;13.780;2023-03-31T18:54:51;9.30;1.00
573;DHT22;271;51.114;13.780;2023-03-31T18:57:39;9.40;1.00
573;DHT22;271;51.114;13.780;2023-03-31T19:00:27;9.50;1.00
573;DHT22;271;51.114;13.780;2023-03-31T19:03:15;9.50;1.00
573;DHT22;271;51.114;13.780;2023-03-31T19:06:04;9.50;1.00
573;DHT22;271;51.114;13.780;2023-03-31T19:08:54;9.60;1.00
573;DHT22;271;51.114;13.780;2023-03-31T19:11:44;9.60;1.00
573;DHT22;271;51.114;13.780;2023-03-31T19:14:32;9.70;1.00
573;DHT22;271;51.114;13.780;2023-03-31T19:17:21;9.70;1.00
573;DHT22;271;51.114;13.780;2023-03-31T19:20:09;9.80;1.00
573;DHT22;271;51.114;13.780;2023-03-31T19:23:01;9.70;1.00
573;DHT22;271;51.114;13.780;2023-03-31T19:25:53;9.80;1.00
573;DHT22;271;51.114;13.780;2023-03-31T19:28:42;9.90;1.00
573;DHT22;271;51.114;13.780;2023-03-31T19:31:30;9.90;1.00
573;DHT22;271;51.114;13.780;2023-03-31T19:34:23;9.90;1.00
573;DHT22;271;51.114;13.780;2023-03-31T19:37:11;9.90;1.00
573;DHT22;271;51.114;13.780;2023-03-31T19:39:59;9.90;1.00
573;DHT22;271;51.114;13.780;2023-03-31T19:42:48;10.00;1.00
573;DHT22;271;51.114;13.780;2023-03-31T19:45:37;10.10;1.00
573;DHT22;271;51.114;13.780;2023-03-31T19:48:26;10.10;1.00
573;DHT22;271;51.114;13.780;2023-03-31T19:51:15;10.10;1.00
573;DHT22;271;51.114;13.780;2023-03-31T19:54:04;10.10;1.00
573;DHT22;271;51.114;13.780;2023-03-31T19:56:52;10.10;1.00
573;DHT22;271;51.114;13.780;2023-03-31T19:59:40;10.20;1.00
573;DHT22;271;51.114;13.780;2023-03-31T20:02:29;10.20;1.00
573;DHT22;271;51.114;13.780;2023-03-31T20:05:17;10.20;1.00